Main page
METAR-TAF:

METAR-TAF

Airports :

Aeroporto di Cameri

Novara, Italy

latitude: 45-31N, longitude: 008-40E, elevation: 178 m

Current weather observation

The report was made 1 hour and 0 minutes ago, at 13:55 UTC
Wind 12 kt from the Northeast
Temperature 32°C
Humidity 14%
Pressure 1011 hPa
Visibility 10 km or more
Few clouds at a height of 3000 ft

METAR: LIMN 221355Z 04012KT 9999 FEW030 32/01 Q1011 RMK FEW VIS MIN 9999 BLU

Time: 16:55 (14:55 UTC)

Forecast

The report was made 55 minutes ago, at 14:00 UTC
Forecast valid from 22 at 15 UTC to 22 at 24 UTC
Wind 10 kt from the Northeast
Visibility 10 km or more
Few clouds at a height of 3000 ft
Probability 30% :
Temporary
from 22 at 15 UTC to 22 at 18 UTC
Wind 15 kt from the Northeast with gusts up to 25 kt

TAF: LIMN 221400Z 2215/2224 04010KT 9999 FEW030 PROB30 TEMPO 2215/2218 04015G25KT

Weather observations and forecasts of more than 4000 airports (METAR and TAF reports).

The available stations are represented by yellow and red dots on the map.

Hover mouse over dot to see the name of the station.

Then click to see weather observations and forecasts.

To change the map : click on the green buttons with a black cross to zoom in, on the green button with a dash to zoom out, or on the green arrows for adjacent maps.


METAR-TAF: